Time;durP1;ratioP1;P1;durP2;ratioP2;P2;SDS_P1;SDS_P2;PMS_P1;PMS_P2;Temp;Humidity;BMP_temperature;BMP_pressure;BME280_temperature;BME280_humidity;BME280_pressure;Samples;Min_cycle;Max_cycle;Signal;HPM_P1;HPM_P2
2021/08/10 00:00:49;;;;;;;8.82;2.65;;;14.50;94.80;;;;;;5038375;28;20075;-71
2021/08/10 00:03:18;;;;;;;4.57;2.40;;;14.50;94.80;;;;;;5040210;28;20395;-71
2021/08/10 00:05:47;;;;;;;6.82;2.35;;;14.50;95.10;;;;;;5040253;28;20037;-71
2021/08/10 00:08:15;;;;;;;5.18;2.15;;;14.30;95.40;;;;;;5041152;28;20495;-71
2021/08/10 00:10:41;;;;;;;9.38;2.47;;;14.20;95.60;;;;;;5041012;28;20036;-71
2021/08/10 00:13:06;;;;;;;5.47;2.50;;;14.20;95.40;;;;;;5043423;28;20120;-70
2021/08/10 00:15:32;;;;;;;5.22;2.40;;;14.30;95.10;;;;;;5044167;28;20032;-70
2021/08/10 00:17:58;;;;;;;6.85;2.30;;;14.30;95.20;;;;;;5044202;28;20025;-71
2021/08/10 00:20:23;;;;;;;5.75;2.67;;;14.30;94.90;;;;;;5043713;28;20028;-71
2021/08/10 00:22:51;;;;;;;6.55;2.83;;;14.30;94.50;;;;;;5037289;28;20041;-70
2021/08/10 00:25:17;;;;;;;4.20;2.20;;;14.40;94.20;;;;;;5038449;28;20371;-71
2021/08/10 00:27:43;;;;;;;5.05;2.22;;;14.50;93.50;;;;;;5046002;28;20056;-70
2021/08/10 00:30:09;;;;;;;5.95;2.20;;;14.60;93.00;;;;;;5043251;28;20028;-71
2021/08/10 00:32:34;;;;;;;4.15;2.25;;;14.60;93.40;;;;;;5040851;28;20051;-71
2021/08/10 00:35:00;;;;;;;5.90;2.28;;;14.50;93.50;;;;;;5045568;28;20053;-71
2021/08/10 00:37:26;;;;;;;5.45;2.15;;;14.40;94.10;;;;;;5037950;28;20048;-70
2021/08/10 00:39:51;;;;;;;4.63;2.15;;;14.20;94.40;;;;;;5041292;28;20033;-70
2021/08/10 00:42:17;;;;;;;5.00;2.50;;;14.10;94.40;;;;;;5044675;28;20325;-70
2021/08/10 00:44:43;;;;;;;7.72;2.60;;;14.00;94.90;;;;;;5036952;28;20037;-71
2021/08/10 00:47:09;;;;;;;4.70;2.20;;;13.90;95.00;;;;;;5035903;28;20101;-71
2021/08/10 00:49:34;;;;;;;6.35;2.47;;;13.90;94.80;;;;;;5035753;28;20438;-71
2021/08/10 00:52:00;;;;;;;4.85;2.00;;;14.00;94.30;;;;;;5041248;28;20041;-71
2021/08/10 00:54:26;;;;;;;5.35;2.22;;;14.10;94.50;;;;;;5035780;28;20029;-71
2021/08/10 00:56:53;;;;;;;4.10;1.90;;;14.10;93.80;;;;;;5035670;28;20029;-71
2021/08/10 00:59:18;;;;;;;5.45;2.35;;;14.00;94.10;;;;;;5034493;28;20018;-71
2021/08/10 01:01:44;;;;;;;6.70;2.22;;;13.90;94.60;;;;;;5035666;28;20034;-71
2021/08/10 01:04:13;;;;;;;4.10;2.28;;;13.80;95.40;;;;;;5035755;28;20033;-71
2021/08/10 01:06:52;;;;;;;4.75;2.15;;;13.70;95.80;;;;;;5035477;28;20528;-71
2021/08/10 01:09:28;;;;;;;5.93;2.30;;;13.50;96.20;;;;;;5034642;28;20426;-70
2021/08/10 01:12:06;;;;;;;5.00;2.25;;;13.40;96.20;;;;;;5034767;28;20053;-71
2021/08/10 01:14:53;;;;;;;5.75;2.38;;;13.40;96.20;;;;;;5034480;28;20029;-70
2021/08/10 01:17:37;;;;;;;4.07;2.15;;;13.30;96.70;;;;;;5035319;28;20032;-69
2021/08/10 01:20:17;;;;;;;6.82;2.22;;;13.20;96.70;;;;;;5035620;28;20025;-70
2021/08/10 01:22:53;;;;;;;4.65;2.40;;;13.10;96.90;;;;;;5035736;28;20029;-70
2021/08/10 01:25:19;;;;;;;4.88;2.22;;;13.10;97.10;;;;;;5034431;28;20104;-72
2021/08/10 01:28:15;;;;;;;5.72;2.47;;;13.00;97.40;;;;;;5035418;28;20421;-71
2021/08/10 01:31:06;;;;;;;6.20;2.60;;;12.90;97.40;;;;;;5034298;28;20087;-71
2021/08/10 01:33:45;;;;;;;5.93;2.72;;;12.80;97.60;;;;;;5037145;28;20045;-71
2021/08/10 01:36:12;;;;;;;4.60;2.40;;;12.70;97.80;;;;;;5039247;28;20394;-71
2021/08/10 01:38:42;;;;;;;6.65;2.83;;;12.60;97.70;;;;;;5039191;28;20077;-71
2021/08/10 01:41:12;;;;;;;17.80;3.25;;;12.50;97.80;;;;;;5040291;28;20311;-71
2021/08/10 01:43:40;;;;;;;4.97;2.10;;;12.40;97.90;;;;;;5037951;28;20036;-71
2021/08/10 01:46:06;;;;;;;5.40;2.80;;;12.30;98.00;;;;;;5038959;28;20087;-71
2021/08/10 01:48:33;;;;;;;6.18;2.50;;;12.30;98.00;;;;;;5039054;28;20109;-71
2021/08/10 01:51:00;;;;;;;6.28;2.80;;;12.30;98.00;;;;;;5038913;28;20021;-71
2021/08/10 01:53:27;;;;;;;6.13;2.88;;;12.30;98.00;;;;;;5038917;28;20288;-71
2021/08/10 01:55:57;;;;;;;4.45;2.40;;;12.30;98.00;;;;;;5038899;28;20163;-71
2021/08/10 01:58:24;;;;;;;7.05;2.40;;;12.30;98.00;;;;;;5038762;28;20398;-70
2021/08/10 02:00:51;;;;;;;6.13;2.65;;;12.30;98.00;;;;;;5037579;28;20026;-70
2021/08/10 02:03:24;;;;;;;6.05;2.50;;;12.20;98.00;;;;;;5038604;28;20028;-70
2021/08/10 02:05:50;;;;;;;5.75;2.42;;;12.30;98.00;;;;;;5038723;28;20299;-71
2021/08/10 02:08:17;;;;;;;4.13;2.15;;;12.40;98.00;;;;;;5039791;28;20036;-71
2021/08/10 02:10:45;;;;;;;6.35;2.13;;;12.50;98.00;;;;;;5053503;28;20326;-71
2021/08/10 02:13:12;;;;;;;5.22;2.38;;;12.50;97.90;;;;;;5058536;28;20033;-71
2021/08/10 02:15:48;;;;;;;5.75;2.50;;;12.40;98.00;;;;;;5057099;28;20108;-71
2021/08/10 02:18:13;;;;;;;4.88;2.22;;;12.20;98.00;;;;;;5058324;28;20014;-71
2021/08/10 02:20:41;;;;;;;6.53;2.28;;;12.20;98.00;;;;;;5058396;28;20021;-71
2021/08/10 02:23:09;;;;;;;4.25;2.03;;;12.30;98.00;;;;;;5058183;28;20096;-71
2021/08/10 02:25:36;;;;;;;4.95;2.33;;;12.50;97.90;;;;;;5058272;28;20025;-71
2021/08/10 02:28:04;;;;;;;5.78;2.33;;;12.60;97.50;;;;;;5058209;28;20052;-71
2021/08/10 02:30:34;;;;;;;5.20;2.55;;;12.60;97.70;;;;;;5056978;28;20017;-71
2021/08/10 02:33:05;;;;;;;4.90;2.25;;;12.50;98.00;;;;;;5052884;28;20048;-71
2021/08/10 02:35:31;;;;;;;6.88;2.67;;;12.50;98.00;;;;;;5037774;28;20339;-71
2021/08/10 02:38:06;;;;;;;5.47;2.55;;;12.50;98.00;;;;;;5038075;28;20056;-71
2021/08/10 02:40:33;;;;;;;5.97;2.22;;;12.50;98.00;;;;;;5037413;28;20485;-70
2021/08/10 02:43:01;;;;;;;6.40;2.72;;;12.50;98.00;;;;;;5038193;28;20318;-70
2021/08/10 02:45:27;;;;;;;7.85;2.53;;;12.60;98.00;;;;;;5042609;28;20316;-71
2021/08/10 02:47:55;;;;;;;6.90;2.42;;;12.60;97.80;;;;;;5058049;28;20025;-71
2021/08/10 02:50:21;;;;;;;6.90;2.65;;;12.50;97.90;;;;;;5057770;28;20025;-72
2021/08/10 02:52:47;;;;;;;4.75;2.40;;;12.40;98.00;;;;;;5057825;28;20373;-71
2021/08/10 02:55:13;;;;;;;5.97;2.70;;;12.40;98.00;;;;;;5057570;28;20100;-71
2021/08/10 02:57:47;;;;;;;5.13;2.70;;;12.40;98.00;;;;;;5057566;28;20317;-71
2021/08/10 03:00:15;;;;;;;5.28;2.50;;;12.60;98.00;;;;;;5054440;28;20032;-70
2021/08/10 03:02:48;;;;;;;7.13;2.50;;;12.60;98.00;;;;;;5042738;28;20095;-71
2021/08/10 03:05:20;;;;;;;4.50;2.45;;;12.60;98.00;;;;;;5053811;28;20036;-70
2021/08/10 03:07:50;;;;;;;4.90;2.28;;;12.60;98.00;;;;;;5055969;28;20098;-71
2021/08/10 03:10:18;;;;;;;4.90;2.65;;;12.50;98.00;;;;;;5041253;28;20037;-70
2021/08/10 03:12:49;;;;;;;9.05;2.75;;;12.60;98.00;;;;;;5037496;28;20399;-71
2021/08/10 03:15:20;;;;;;;9.90;2.83;;;12.50;98.00;;;;;;5046596;28;20033;-71
2021/08/10 03:17:46;;;;;;;9.23;2.70;;;12.40;98.00;;;;;;5036381;28;20457;-70
2021/08/10 03:20:14;;;;;;;6.00;2.88;;;12.30;98.00;;;;;;5052590;28;20025;-70
2021/08/10 03:22:43;;;;;;;7.57;2.72;;;12.30;98.00;;;;;;5057281;28;20028;-71
2021/08/10 03:25:12;;;;;;;8.35;3.00;;;12.30;98.00;;;;;;5055516;28;20303;-71
2021/08/10 03:27:39;;;;;;;14.35;2.72;;;12.40;98.00;;;;;;5057333;28;20337;-71
2021/08/10 03:30:06;;;;;;;5.65;2.83;;;12.40;98.00;;;;;;5037988;28;20079;-71
2021/08/10 03:32:34;;;;;;;9.90;2.97;;;12.40;98.00;;;;;;5037252;28;20108;-71
2021/08/10 03:35:00;;;;;;;5.85;2.60;;;12.30;98.00;;;;;;5051727;28;20040;-71
2021/08/10 03:37:29;;;;;;;10.85;2.63;;;12.30;98.00;;;;;;5056863;28;20025;-71
2021/08/10 03:39:56;;;;;;;6.13;2.65;;;12.30;98.00;;;;;;5042570;28;20330;-71
2021/08/10 03:42:22;;;;;;;8.20;2.92;;;12.30;98.00;;;;;;5043032;28;20036;-71
2021/08/10 03:44:49;;;;;;;6.55;3.00;;;12.20;98.00;;;;;;5043167;28;20022;-71
2021/08/10 03:47:19;;;;;;;5.97;2.83;;;12.20;98.00;;;;;;5053441;28;20475;-71
2021/08/10 03:49:46;;;;;;;7.05;3.17;;;12.20;98.00;;;;;;5054378;28;20111;-70
2021/08/10 03:52:15;;;;;;;5.45;2.88;;;12.20;98.00;;;;;;5039890;28;20037;-72
2021/08/10 03:54:42;;;;;;;5.85;2.97;;;12.20;98.00;;;;;;5036858;28;20036;-71
2021/08/10 03:57:18;;;;;;;4.75;2.45;;;12.30;98.00;;;;;;5050545;28;20064;-71
2021/08/10 03:59:47;;;;;;;5.90;3.05;;;12.30;98.00;;;;;;5042363;28;20365;-71
2021/08/10 04:02:17;;;;;;;5.40;2.50;;;12.40;98.00;;;;;;5046875;28;20025;-71
2021/08/10 04:04:47;;;;;;;5.43;2.65;;;12.40;98.00;;;;;;5038127;28;20028;-71
2021/08/10 04:07:13;;;;;;;6.60;2.63;;;12.40;98.00;;;;;;5046752;28;20024;-71
2021/08/10 04:09:40;;;;;;;7.43;2.88;;;12.40;98.00;;;;;;5044416;28;20430;-70
2021/08/10 04:12:07;;;;;;;5.22;2.53;;;12.40;98.00;;;;;;5044077;28;20092;-69
2021/08/10 04:14:36;;;;;;;7.25;2.85;;;12.50;98.00;;;;;;5048700;28;20021;-69
2021/08/10 04:17:06;;;;;;;4.63;2.60;;;12.60;98.00;;;;;;5036322;28;20025;-69
2021/08/10 04:19:36;;;;;;;5.15;2.80;;;12.70;98.00;;;;;;5042348;28;20112;-69
2021/08/10 04:22:03;;;;;;;7.68;3.13;;;12.70;98.00;;;;;;5056231;28;20364;-71
2021/08/10 04:24:29;;;;;;;6.50;2.58;;;12.70;98.00;;;;;;5046371;28;20371;-71
2021/08/10 04:26:55;;;;;;;4.75;2.53;;;12.80;98.00;;;;;;5036312;28;20314;-71
2021/08/10 04:29:21;;;;;;;9.82;3.08;;;12.80;98.00;;;;;;5043170;28;20040;-72
2021/08/10 04:31:47;;;;;;;6.88;2.67;;;12.90;98.00;;;;;;5047357;28;20057;-71
2021/08/10 04:34:13;;;;;;;6.03;2.60;;;12.90;98.00;;;;;;5037107;28;20334;-71
2021/08/10 04:36:38;;;;;;;5.18;2.50;;;13.00;98.00;;;;;;5036019;28;20025;-71
2021/08/10 04:39:04;;;;;;;6.90;2.72;;;13.00;98.00;;;;;;5045284;28;20044;-71
2021/08/10 04:41:30;;;;;;;5.57;2.50;;;13.10;98.00;;;;;;5055522;28;20017;-71
2021/08/10 04:43:56;;;;;;;5.97;2.70;;;13.20;98.00;;;;;;5054158;28;20033;-71
2021/08/10 04:46:26;;;;;;;6.95;2.97;;;13.20;98.00;;;;;;5055998;28;20325;-71
2021/08/10 04:48:52;;;;;;;5.22;2.50;;;13.20;98.00;;;;;;5036981;28;20025;-71
2021/08/10 04:51:18;;;;;;;5.05;2.50;;;13.30;98.00;;;;;;5039064;28;20031;-72
2021/08/10 04:53:43;;;;;;;5.68;2.55;;;13.40;98.00;;;;;;5055874;28;20025;-72
2021/08/10 04:56:09;;;;;;;5.07;2.38;;;13.50;97.90;;;;;;5041133;28;20326;-71
2021/08/10 04:58:36;;;;;;;6.60;2.67;;;13.60;97.70;;;;;;5034739;28;20101;-70
2021/08/10 05:01:02;;;;;;;5.65;3.00;;;13.60;97.80;;;;;;5046006;28;20075;-71
2021/08/10 05:03:29;;;;;;;8.43;2.85;;;13.70;97.90;;;;;;5041625;28;20021;-71
2021/08/10 05:05:55;;;;;;;7.53;2.83;;;13.80;98.00;;;;;;5035674;28;20033;-71
2021/08/10 05:08:20;;;;;;;4.82;2.28;;;14.00;97.70;;;;;;5038242;28;20063;-72
2021/08/10 05:10:46;;;;;;;4.57;2.58;;;14.20;97.60;;;;;;5039722;28;20030;-71
2021/08/10 05:13:12;;;;;;;5.65;2.35;;;14.40;97.70;;;;;;5048702;28;20033;-71
2021/08/10 05:15:37;;;;;;;5.28;2.70;;;14.50;97.40;;;;;;5058247;28;20113;-71
2021/08/10 05:18:04;;;;;;;4.43;2.30;;;14.60;97.10;;;;;;5041259;28;20411;-71
2021/08/10 05:20:29;;;;;;;6.90;2.70;;;14.50;97.10;;;;;;5039632;28;20021;-72
2021/08/10 05:22:55;;;;;;;8.20;2.65;;;14.40;97.10;;;;;;5051611;28;20032;-71
2021/08/10 05:25:21;;;;;;;7.70;2.88;;;14.40;97.00;;;;;;5039327;28;20097;-71
2021/08/10 05:27:47;;;;;;;5.38;2.70;;;14.30;97.30;;;;;;5039674;28;20484;-72
2021/08/10 05:30:13;;;;;;;6.07;2.42;;;14.30;97.20;;;;;;5039239;28;20064;-71
2021/08/10 05:32:39;;;;;;;5.70;2.60;;;14.30;97.20;;;;;;5038684;28;20338;-72
2021/08/10 05:35:06;;;;;;;6.55;2.42;;;14.30;97.20;;;;;;5051362;28;20059;-71
2021/08/10 05:37:32;;;;;;;7.40;2.58;;;14.40;97.30;;;;;;5046988;28;20034;-72
2021/08/10 05:39:58;;;;;;;7.70;2.35;;;14.60;97.20;;;;;;5048757;28;20419;-71
2021/08/10 05:42:23;;;;;;;4.85;2.40;;;14.60;96.60;;;;;;5059926;28;20406;-72
2021/08/10 05:44:49;;;;;;;6.40;2.67;;;14.60;96.40;;;;;;5058014;28;20025;-71
2021/08/10 05:47:15;;;;;;;5.18;2.33;;;14.60;96.20;;;;;;5059265;28;20021;-71
2021/08/10 05:49:40;;;;;;;9.25;2.78;;;14.60;96.20;;;;;;5059090;28;20017;-71
2021/08/10 05:52:08;;;;;;;9.48;2.88;;;14.70;96.20;;;;;;5059028;28;20094;-71
2021/08/10 05:54:34;;;;;;;6.07;2.40;;;14.80;96.20;;;;;;5040245;28;20021;-71
2021/08/10 05:57:00;;;;;;;8.60;3.70;;;14.80;96.10;;;;;;5038928;28;20084;-71
2021/08/10 05:59:25;;;;;;;5.35;2.58;;;14.90;96.30;;;;;;5037757;28;20030;-71
2021/08/10 06:01:51;;;;;;;4.38;2.28;;;15.00;96.20;;;;;;5047584;28;20029;-71
2021/08/10 06:04:17;;;;;;;3.83;2.08;;;15.30;95.50;;;;;;5039036;28;20475;-71
2021/08/10 06:06:42;;;;;;;6.40;2.63;;;15.60;94.90;;;;;;5039595;28;20318;-71
2021/08/10 06:09:08;;;;;;;4.15;2.10;;;15.70;93.30;;;;;;5052259;28;20096;-72
2021/08/10 06:11:34;;;;;;;7.80;2.60;;;15.80;93.40;;;;;;5058731;28;20048;-71
2021/08/10 06:14:00;;;;;;;5.95;2.42;;;16.00;93.20;;;;;;5057421;28;20032;-71
2021/08/10 06:16:26;;;;;;;5.47;2.78;;;16.10;92.80;;;;;;5056884;28;20040;-71
2021/08/10 06:18:52;;;;;;;4.00;2.13;;;15.90;92.00;;;;;;5052736;28;20029;-71
2021/08/10 06:21:17;;;;;;;4.95;2.50;;;15.90;93.30;;;;;;5046661;28;20036;-72
2021/08/10 06:23:43;;;;;;;7.75;3.20;;;16.10;93.70;;;;;;5056571;28;20021;-71
2021/08/10 06:26:09;;;;;;;5.38;2.50;;;16.30;93.30;;;;;;5056009;28;20434;-71
2021/08/10 06:28:35;;;;;;;6.93;2.88;;;16.50;92.10;;;;;;5054715;28;20139;-71
2021/08/10 06:31:03;;;;;;;5.78;2.78;;;16.80;91.60;;;;;;5038318;28;20036;-71
2021/08/10 06:33:28;;;;;;;5.13;2.60;;;16.90;92.20;;;;;;5039727;28;20025;-71
2021/08/10 06:35:54;;;;;;;6.15;2.17;;;17.00;91.50;;;;;;5057918;28;20045;-71
2021/08/10 06:38:20;;;;;;;5.35;2.60;;;17.00;91.60;;;;;;5057568;28;20017;-71
2021/08/10 06:40:45;;;;;;;5.35;2.03;;;17.40;91.40;;;;;;5052011;28;20024;-71
2021/08/10 06:43:14;;;;;;;6.28;2.50;;;17.70;90.10;;;;;;5056533;28;20025;-72
2021/08/10 06:45:41;;;;;;;4.80;2.33;;;17.60;88.80;;;;;;5036953;28;20033;-71
2021/08/10 06:48:07;;;;;;;4.78;2.50;;;17.60;89.40;;;;;;5046056;28;20029;-71
2021/08/10 06:50:33;;;;;;;5.43;2.38;;;17.80;88.30;;;;;;5057924;28;20295;-71
2021/08/10 06:52:59;;;;;;;4.88;2.08;;;18.00;87.60;;;;;;5056079;28;20377;-71
2021/08/10 06:55:24;;;;;;;4.50;1.92;;;18.30;87.80;;;;;;5046521;28;20029;-71
2021/08/10 06:57:50;;;;;;;5.28;2.25;;;18.50;86.70;;;;;;5037865;28;20112;-71
2021/08/10 07:00:16;;;;;;;5.60;2.35;;;18.70;87.40;;;;;;5036655;28;20026;-71
2021/08/10 07:02:45;;;;;;;5.18;2.20;;;18.90;87.50;;;;;;5037727;28;20022;-70
2021/08/10 07:05:10;;;;;;;4.40;2.03;;;19.00;85.00;;;;;;5037761;28;20029;-70
2021/08/10 07:07:36;;;;;;;4.15;2.20;;;19.50;85.60;;;;;;5037492;28;20028;-70
2021/08/10 07:10:03;;;;;;;5.13;2.22;;;20.20;83.30;;;;;;5043821;28;20051;-70
2021/08/10 07:12:29;;;;;;;4.50;2.30;;;20.70;78.60;;;;;;5057326;28;20056;-70
2021/08/10 07:14:55;;;;;;;4.00;1.90;;;21.00;76.60;;;;;;5056335;28;20045;-71
2021/08/10 07:17:21;;;;;;;5.93;2.28;;;21.00;76.80;;;;;;5057529;28;20398;-72
2021/08/10 07:19:46;;;;;;;5.15;2.20;;;21.10;77.30;;;;;;5056224;28;20028;-72
2021/08/10 07:22:12;;;;;;;5.55;2.28;;;20.90;78.50;;;;;;5057178;28;20071;-72
2021/08/10 07:24:38;;;;;;;3.63;1.92;;;21.10;78.50;;;;;;5057244;28;20038;-71
2021/08/10 07:27:06;;;;;;;3.80;1.77;;;21.30;77.70;;;;;;5057239;28;20112;-72
2021/08/10 07:29:32;;;;;;;5.72;2.00;;;21.70;77.90;;;;;;5056511;28;20272;-72
2021/08/10 07:31:58;;;;;;;4.85;2.05;;;21.80;75.40;;;;;;5057038;28;20043;-71
2021/08/10 07:34:23;;;;;;;4.28;2.08;;;21.80;76.30;;;;;;5056910;28;20055;-71
2021/08/10 07:36:49;;;;;;;3.92;1.90;;;21.90;75.00;;;;;;5056891;28;20079;-71
2021/08/10 07:39:15;;;;;;;3.80;1.80;;;22.00;74.70;;;;;;5053445;28;20025;-71
2021/08/10 07:41:40;;;;;;;3.42;1.90;;;22.20;75.20;;;;;;5037146;28;20100;-71
2021/08/10 07:44:06;;;;;;;5.10;1.90;;;22.00;76.20;;;;;;5035771;28;20025;-69
2021/08/10 07:46:32;;;;;;;4.05;1.77;;;22.20;76.90;;;;;;5036949;28;20052;-70
2021/08/10 07:48:58;;;;;;;5.07;1.67;;;22.30;74.40;;;;;;5036912;28;20418;-70
2021/08/10 07:51:23;;;;;;;4.35;2.00;;;22.50;73.70;;;;;;5036628;28;20017;-70
2021/08/10 07:53:49;;;;;;;4.45;1.90;;;22.20;73.40;;;;;;5036726;28;20116;-71
2021/08/10 07:56:15;;;;;;;3.47;1.50;;;22.30;74.30;;;;;;5036598;28;20033;-70
2021/08/10 07:58:41;;;;;;;3.97;1.80;;;22.10;73.60;;;;;;5035621;28;20028;-71
2021/08/10 08:01:06;;;;;;;5.22;1.88;;;22.00;74.80;;;;;;5036624;28;20071;-70
2021/08/10 08:03:33;;;;;;;3.58;1.73;;;22.00;73.00;;;;;;5036612;28;20079;-70
2021/08/10 08:05:59;;;;;;;4.25;1.90;;;22.60;73.20;;;;;;5037497;28;20033;-71
2021/08/10 08:08:27;;;;;;;3.97;1.73;;;22.70;72.70;;;;;;5036513;28;20025;-70
2021/08/10 08:10:53;;;;;;;4.63;1.75;;;22.70;72.50;;;;;;5036427;28;20025;-71
2021/08/10 08:13:20;;;;;;;4.60;1.73;;;23.60;71.70;;;;;;5036413;28;20038;-71
2021/08/10 08:15:47;;;;;;;5.15;1.60;;;24.00;69.50;;;;;;5035110;28;20037;-71
2021/08/10 08:18:13;;;;;;;4.63;1.58;;;24.40;68.90;;;;;;5036397;28;20021;-70
2021/08/10 08:20:39;;;;;;;4.32;1.58;;;25.30;67.40;;;;;;5036216;28;20053;-70
2021/08/10 08:23:04;;;;;;;5.40;1.60;;;26.10;65.40;;;;;;5036454;28;20139;-70
2021/08/10 08:25:30;;;;;;;7.32;1.80;;;25.20;66.10;;;;;;5036202;28;20033;-71
2021/08/10 08:27:56;;;;;;;4.60;1.50;;;25.30;66.50;;;;;;5036157;28;20071;-71
2021/08/10 08:30:22;;;;;;;3.83;1.40;;;27.00;63.90;;;;;;5035116;28;20429;-71
2021/08/10 08:32:47;;;;;;;3.80;1.83;;;27.80;62.40;;;;;;5035976;28;20021;-70
2021/08/10 08:35:13;;;;;;;3.72;1.25;;;27.10;62.70;;;;;;5041814;28;20434;-71
2021/08/10 08:37:39;;;;;;;3.85;1.45;;;27.50;61.10;;;;;;5055948;28;20029;-70
2021/08/10 08:40:06;;;;;;;3.28;1.30;;;28.90;58.70;;;;;;5055907;28;20444;-71
2021/08/10 08:42:33;;;;;;;3.53;1.35;;;28.60;59.70;;;;;;5055635;28;20021;-71
2021/08/10 08:44:59;;;;;;;4.07;1.58;;;28.60;58.60;;;;;;5054720;28;20075;-71
2021/08/10 08:47:25;;;;;;;3.40;1.40;;;29.00;59.70;;;;;;5055978;28;20028;-70
2021/08/10 08:49:55;;;;;;;3.60;1.27;;;28.90;58.70;;;;;;5055765;28;20037;-71
2021/08/10 08:52:22;;;;;;;5.05;1.80;;;29.30;58.20;;;;;;5055911;28;20017;-71
2021/08/10 08:54:49;;;;;;;4.47;1.67;;;29.00;59.10;;;;;;5056018;28;20279;-71
2021/08/10 08:57:15;;;;;;;5.30;1.65;;;29.40;60.00;;;;;;5055686;28;20033;-70
2021/08/10 08:59:42;;;;;;;4.35;1.65;;;29.00;59.00;;;;;;5054640;28;20021;-70
2021/08/10 09:02:17;;;;;;;3.10;1.33;;;28.10;58.50;;;;;;5054747;28;20353;-70
2021/08/10 09:04:46;;;;;;;4.32;1.50;;;27.90;61.20;;;;;;5054059;28;20017;-71
2021/08/10 09:07:12;;;;;;;4.25;1.50;;;27.80;61.00;;;;;;5053761;28;20033;-70
2021/08/10 09:09:38;;;;;;;3.45;1.40;;;27.90;62.90;;;;;;5055719;28;20104;-70
2021/08/10 09:12:15;;;;;;;3.75;1.60;;;27.50;60.30;;;;;;5055603;28;20295;-70
2021/08/10 09:14:49;;;;;;;3.75;1.60;;;26.00;63.40;;;;;;5054581;28;20078;-70
2021/08/10 09:17:20;;;;;;;5.63;1.92;;;25.40;66.70;;;;;;5055533;28;20061;-70
2021/08/10 09:19:51;;;;;;;5.57;1.80;;;25.80;67.40;;;;;;5055711;28;20025;-70
2021/08/10 09:22:27;;;;;;;4.35;1.63;;;27.20;64.30;;;;;;5055614;28;20091;-69
2021/08/10 09:25:01;;;;;;;3.65;1.48;;;28.40;61.60;;;;;;5055628;28;20484;-70
2021/08/10 09:27:29;;;;;;;3.80;1.50;;;29.20;59.60;;;;;;5055438;28;20033;-71
2021/08/10 09:29:59;;;;;;;5.45;2.08;;;28.90;59.00;;;;;;5054424;28;20021;-70
2021/08/10 09:32:26;;;;;;;4.07;1.60;;;28.60;58.90;;;;;;5055506;28;20021;-71
2021/08/10 09:35:15;;;;;;;3.53;1.63;;;28.30;59.80;;;;;;5055334;28;20048;-71
2021/08/10 09:37:41;;;;;;;3.42;1.58;;;27.60;61.40;;;;;;5050142;28;20025;-70
2021/08/10 09:40:34;;;;;;;4.47;1.90;;;27.00;61.40;;;;;;5051612;28;20502;-69
2021/08/10 09:43:32;;;;;;;4.03;1.80;;;27.20;61.60;;;;;;5055361;28;20410;-70
2021/08/10 09:46:16;;;;;;;5.15;2.20;;;28.40;60.10;;;;;;5055128;28;20429;-70
2021/08/10 09:48:55;;;;;;;7.22;2.65;;;27.80;59.30;;;;;;5055363;28;20100;-71
2021/08/10 09:51:28;;;;;;;4.78;2.33;;;26.90;61.20;;;;;;5055454;28;20090;-70
2021/08/10 09:54:01;;;;;;;4.63;1.80;;;26.10;63.70;;;;;;5055272;28;20357;-70
2021/08/10 09:56:52;;;;;;;3.80;1.70;;;26.10;64.30;;;;;;5057909;28;20048;-70
2021/08/10 09:59:20;;;;;;;6.18;2.20;;;26.30;64.00;;;;;;5057704;28;20105;-70
2021/08/10 10:01:51;;;;;;;3.83;1.80;;;27.00;64.80;;;;;;5058946;28;20393;-70
2021/08/10 10:04:20;;;;;;;4.38;1.98;;;28.40;61.70;;;;;;5057974;28;20421;-69
2021/08/10 10:06:48;;;;;;;5.00;1.90;;;28.50;60.50;;;;;;5055138;28;20111;-70
2021/08/10 10:09:14;;;;;;;5.70;2.30;;;28.30;59.30;;;;;;5058461;28;20032;-71
2021/08/10 10:11:41;;;;;;;5.90;2.20;;;27.80;61.10;;;;;;5058674;28;20025;-71
2021/08/10 10:14:11;;;;;;;5.35;2.40;;;27.10;62.10;;;;;;5056439;28;20365;-71
2021/08/10 10:16:43;;;;;;;4.95;2.40;;;26.90;62.60;;;;;;5058407;28;20064;-70
2021/08/10 10:19:13;;;;;;;4.65;2.20;;;25.80;64.10;;;;;;5058604;28;20033;-71
2021/08/10 10:21:55;;;;;;;4.65;2.28;;;25.70;65.80;;;;;;5058550;28;20017;-71
2021/08/10 10:24:22;;;;;;;4.75;2.20;;;25.60;66.20;;;;;;5057421;28;20428;-71
2021/08/10 10:27:03;;;;;;;5.32;2.45;;;25.70;66.30;;;;;;5058273;28;20143;-71
2021/08/10 10:29:29;;;;;;;7.10;2.45;;;25.80;65.80;;;;;;5057205;28;20033;-70
2021/08/10 10:31:55;;;;;;;4.57;2.00;;;26.20;65.30;;;;;;5058238;28;20033;-70
2021/08/10 10:34:21;;;;;;;4.03;2.08;;;27.00;63.60;;;;;;5053798;28;20061;-70
2021/08/10 10:36:48;;;;;;;6.38;2.50;;;27.30;63.00;;;;;;5038329;28;20032;-70
2021/08/10 10:39:28;;;;;;;4.70;1.83;;;27.20;62.00;;;;;;5038208;28;20030;-70
2021/08/10 10:41:57;;;;;;;6.32;2.03;;;28.00;61.60;;;;;;5038091;28;20100;-72
2021/08/10 10:44:58;;;;;;;5.57;2.13;;;28.30;60.60;;;;;;5036949;28;20025;-70
2021/08/10 10:47:24;;;;;;;6.60;1.98;;;28.70;61.20;;;;;;5053791;28;20078;-70
2021/08/10 10:49:56;;;;;;;4.43;2.08;;;28.70;59.80;;;;;;5051122;28;20125;-71
2021/08/10 10:52:23;;;;;;;6.72;2.38;;;27.70;61.90;;;;;;5038005;28;20017;-71
2021/08/10 10:54:49;;;;;;;4.18;2.00;;;27.80;62.30;;;;;;5038967;28;20037;-70
2021/08/10 10:57:30;;;;;;;4.05;2.05;;;28.10;62.70;;;;;;5037644;28;20029;-72
2021/08/10 11:00:16;;;;;;;9.10;2.13;;;28.00;62.30;;;;;;5041654;28;20030;-71
2021/08/10 11:02:42;;;;;;;5.10;1.90;;;28.30;60.90;;;;;;5038961;28;20024;-71
2021/08/10 11:05:12;;;;;;;4.65;2.22;;;27.20;63.40;;;;;;5046546;28;20079;-71
2021/08/10 11:07:40;;;;;;;5.45;2.10;;;27.30;63.30;;;;;;5037314;28;20021;-70
2021/08/10 11:10:10;;;;;;;4.57;2.30;;;27.20;63.60;;;;;;5038867;28;20025;-71
2021/08/10 11:12:41;;;;;;;5.40;1.90;;;27.80;63.70;;;;;;5057349;28;20036;-71
2021/08/10 11:15:07;;;;;;;7.22;2.08;;;28.00;61.90;;;;;;5055231;28;20036;-71
2021/08/10 11:17:35;;;;;;;5.82;2.35;;;28.60;61.10;;;;;;5037543;28;20057;-70
2021/08/10 11:20:21;;;;;;;4.70;2.28;;;28.70;60.90;;;;;;5043226;28;20025;-71
2021/08/10 11:22:47;;;;;;;4.30;2.30;;;28.30;61.40;;;;;;5046861;28;20082;-71
2021/08/10 11:25:26;;;;;;;4.95;2.15;;;28.20;61.10;;;;;;5044918;28;20429;-70
2021/08/10 11:27:51;;;;;;;3.92;1.88;;;28.20;62.00;;;;;;5057033;28;20024;-70
2021/08/10 11:30:20;;;;;;;3.72;1.70;;;28.50;60.00;;;;;;5048156;28;20033;-70
2021/08/10 11:32:48;;;;;;;4.28;2.00;;;28.80;59.90;;;;;;5037184;28;20037;-71
2021/08/10 11:35:35;;;;;;;5.15;1.85;;;28.80;61.20;;;;;;5038039;28;20038;-71
2021/08/10 11:38:12;;;;;;;4.50;2.17;;;29.00;59.20;;;;;;5048393;28;20029;-71
2021/08/10 11:40:52;;;;;;;5.05;2.20;;;28.70;59.20;;;;;;5047805;28;20021;-71
2021/08/10 11:43:43;;;;;;;5.32;2.15;;;28.40;61.20;;;;;;5047683;28;20102;-71
2021/08/10 11:46:17;;;;;;;4.68;2.10;;;27.90;62.70;;;;;;5054829;28;20124;-70
2021/08/10 11:48:51;;;;;;;4.97;2.47;;;28.10;61.60;;;;;;5056935;28;20017;-71
2021/08/10 11:51:17;;;;;;;;;;;27.90;61.70;;;;;;5043995;28;20438;-71
2021/08/10 11:53:43;;;;;;;4.30;2.10;;;27.90;61.80;;;;;;5036809;28;19905;-70
2021/08/10 11:56:29;;;;;;;4.85;2.03;;;27.80;62.70;;;;;;5047741;28;20037;-71
2021/08/10 11:58:59;;;;;;;5.00;2.13;;;27.50;62.50;;;;;;5054492;28;20025;-70
2021/08/10 12:01:27;;;;;;;4.55;2.15;;;27.70;63.30;;;;;;5054972;28;20024;-71
2021/08/10 12:03:53;;;;;;;6.55;2.30;;;27.90;63.70;;;;;;5051776;28;20116;-71
2021/08/10 12:06:27;;;;;;;6.72;2.35;;;29.00;59.90;;;;;;5047716;28;20116;-71
2021/08/10 12:09:03;;;;;;;8.57;2.42;;;28.80;59.80;;;;;;5056490;28;20025;-71
2021/08/10 12:11:29;;;;;;;5.20;2.08;;;29.10;60.40;;;;;;5054791;28;20067;-71
2021/08/10 12:14:15;;;;;;;6.78;2.80;;;29.30;60.10;;;;;;5048082;28;20060;-71
2021/08/10 12:17:07;;;;;;;4.45;2.20;;;29.30;61.00;;;;;;5036360;28;20029;-71
2021/08/10 12:19:36;;;;;;;4.45;2.00;;;29.70;61.30;;;;;;5047704;28;20075;-71
2021/08/10 12:22:08;;;;;;;4.72;2.30;;;30.20;60.00;;;;;;5056362;28;20021;-71
2021/08/10 12:24:41;;;;;;;4.32;1.92;;;30.40;59.20;;;;;;5054442;28;20095;-71
2021/08/10 12:27:08;;;;;;;7.15;2.47;;;29.40;60.40;;;;;;5056138;28;20032;-71
2021/08/10 12:29:36;;;;;;;4.18;2.03;;;28.60;61.30;;;;;;5044551;28;20292;-71
2021/08/10 12:32:04;;;;;;;4.97;2.30;;;27.90;63.50;;;;;;5036149;28;20036;-71
2021/08/10 12:34:31;;;;;;;4.40;2.05;;;28.20;63.80;;;;;;5036293;28;20339;-71
2021/08/10 12:36:57;;;;;;;5.35;2.33;;;28.50;63.30;;;;;;5036131;28;20036;-71
2021/08/10 12:39:28;;;;;;;4.95;2.05;;;29.10;61.40;;;;;;5036106;28;20350;-71
2021/08/10 12:41:57;;;;;;;5.10;2.03;;;29.30;60.60;;;;;;5036170;28;20022;-71
2021/08/10 12:44:25;;;;;;;18.48;3.85;;;28.80;60.80;;;;;;5035899;28;20029;-71
2021/08/10 12:47:29;;;;;;;7.32;2.55;;;28.30;62.50;;;;;;5037345;28;20025;-71
2021/08/10 12:49:56;;;;;;;6.65;2.30;;;28.50;62.60;;;;;;5041321;28;20034;-71
2021/08/10 12:52:39;;;;;;;5.88;2.47;;;28.60;62.80;;;;;;5036078;28;20032;-71
2021/08/10 12:55:05;;;;;;;8.95;2.20;;;28.30;63.20;;;;;;5041043;28;20322;-70
2021/08/10 12:57:34;;;;;;;4.97;2.42;;;28.30;64.30;;;;;;5055644;28;20032;-70